AAL1270 KCLT-KMIA
Flight info
| Callsign | AAL1270 |
|---|---|
| Flight time | N/A |
| Altitude | 38000 |
| Route | ICONS5 NOOKS WURFL Q83 JEVED Q97 DEBRL CSTAL3 |
| Aircraft | A321/M-SDE3FGHIRWY/LB1 |
Departure
| Time | 2026-05-03 22:12 |
|---|---|
| Airport | Charlotte Douglas International Airport (KCLT) |
Arrival
| Time | N/A |
|---|---|
| Airport | Miami International Airport (KMIA) |
| Time | Latitude | Longitude | Altitude | Speed | Heading |
|---|---|---|---|---|---|
| 2026-05-03 21:28 | 35.21829 | -80.94469 | 733 ft | 0 kts | 278° |
| 2026-05-03 21:57 | 35.21829 | -80.94464 | 741 ft | 3 kts | 280° |
| 2026-05-03 21:57 | 35.21817 | -80.94442 | 738 ft | 4 kts | 329° |
| 2026-05-03 21:57 | 35.21799 | -80.94427 | 731 ft | 4 kts | 316° |
| 2026-05-03 21:57 | 35.21786 | -80.94402 | 730 ft | 4 kts | 269° |
| 2026-05-03 21:58 | 35.21794 | -80.94375 | 731 ft | 4 kts | 216° |
| 2026-05-03 21:58 | 35.21817 | -80.94365 | 730 ft | 4 kts | 188° |
| 2026-05-03 21:58 | 35.21827 | -80.94363 | 732 ft | 0 kts | 188° |
| 2026-05-03 22:03 | 35.21820 | -80.94364 | 732 ft | 3 kts | 188° |
| 2026-05-03 22:03 | 35.21791 | -80.94370 | 732 ft | 5 kts | 188° |
| 2026-05-03 22:04 | 35.21754 | -80.94376 | 732 ft | 6 kts | 187° |
| 2026-05-03 22:04 | 35.21708 | -80.94373 | 732 ft | 7 kts | 167° |
| 2026-05-03 22:04 | 35.21677 | -80.94326 | 732 ft | 8 kts | 104° |
| 2026-05-03 22:04 | 35.21669 | -80.94256 | 732 ft | 9 kts | 97° |
| 2026-05-03 22:05 | 35.21681 | -80.94179 | 732 ft | 10 kts | 72° |
| 2026-05-03 22:05 | 35.21704 | -80.94096 | 731 ft | 11 kts | 66° |
| 2026-05-03 22:05 | 35.21709 | -80.94006 | 732 ft | 12 kts | 119° |
| 2026-05-03 22:05 | 35.21651 | -80.93937 | 733 ft | 11 kts | 138° |
| 2026-05-03 22:06 | 35.21590 | -80.93870 | 733 ft | 13 kts | 138° |
| 2026-05-03 22:06 | 35.21521 | -80.93795 | 732 ft | 14 kts | 138° |
| 2026-05-03 22:06 | 35.21446 | -80.93715 | 733 ft | 15 kts | 139° |
| 2026-05-03 22:06 | 35.21377 | -80.93660 | 733 ft | 11 kts | 166° |
| 2026-05-03 22:07 | 35.21294 | -80.93651 | 733 ft | 13 kts | 176° |
| 2026-05-03 22:07 | 35.21202 | -80.93643 | 733 ft | 14 kts | 176° |
| 2026-05-03 22:07 | 35.21103 | -80.93634 | 733 ft | 15 kts | 176° |
| 2026-05-03 22:07 | 35.20997 | -80.93626 | 733 ft | 16 kts | 176° |
| 2026-05-03 22:08 | 35.20885 | -80.93616 | 733 ft | 17 kts | 176° |
| 2026-05-03 22:08 | 35.20769 | -80.93606 | 733 ft | 17 kts | 176° |
| 2026-05-03 22:08 | 35.20646 | -80.93596 | 733 ft | 18 kts | 175° |
| 2026-05-03 22:08 | 35.20516 | -80.93584 | 733 ft | 19 kts | 176° |
| 2026-05-03 22:09 | 35.20382 | -80.93574 | 733 ft | 20 kts | 176° |
| 2026-05-03 22:09 | 35.20247 | -80.93562 | 733 ft | 17 kts | 176° |
| 2026-05-03 22:09 | 35.20158 | -80.93555 | 733 ft | 9 kts | 176° |
| 2026-05-03 22:10 | 35.20110 | -80.93531 | 733 ft | 0 kts | 126° |
| 2026-05-03 22:10 | 35.20105 | -80.93517 | 731 ft | 3 kts | 107° |
| 2026-05-03 22:10 | 35.20105 | -80.93478 | 733 ft | 6 kts | 90° |
| 2026-05-03 22:10 | 35.20116 | -80.93425 | 734 ft | 7 kts | 39° |
| 2026-05-03 22:11 | 35.20140 | -80.93420 | 734 ft | 0 kts | 358° |
| 2026-05-03 22:11 | 35.20160 | -80.93421 | 734 ft | 10 kts | 357° |
| 2026-05-03 22:11 | 35.20438 | -80.93445 | 736 ft | 76 kts | 355° |
| 2026-05-03 22:11 | 35.21192 | -80.93515 | 735 ft | 139 kts | 355° |
| 2026-05-03 22:12 | 35.22301 | -80.93605 | 982 ft | 167 kts | 354° |
| 2026-05-03 22:12 | 35.23468 | -80.93651 | 1594 ft | 171 kts | 356° |
| 2026-05-03 22:12 | 35.24670 | -80.93669 | 2265 ft | 174 kts | 356° |
| 2026-05-03 22:12 | 35.25907 | -80.93684 | 2783 ft | 186 kts | 354° |
| 2026-05-03 22:13 | 35.27276 | -80.93754 | 3055 ft | 208 kts | 355° |
| 2026-05-03 22:13 | 35.28793 | -80.93853 | 3333 ft | 230 kts | 354° |
| 2026-05-03 22:13 | 35.30479 | -80.93979 | 3580 ft | 254 kts | 354° |
| 2026-05-03 22:13 | 35.32293 | -80.94113 | 4124 ft | 266 kts | 354° |
| 2026-05-03 22:14 | 35.34157 | -80.94036 | 4906 ft | 273 kts | 12° |
| 2026-05-03 22:14 | 35.35936 | -80.93144 | 5649 ft | 278 kts | 26° |
| 2026-05-03 22:14 | 35.37570 | -80.91864 | 6423 ft | 283 kts | 43° |
| 2026-05-03 22:14 | 35.38718 | -80.89896 | 7188 ft | 288 kts | 66° |
| 2026-05-03 22:15 | 35.39097 | -80.87487 | 7829 ft | 293 kts | 92° |
| 2026-05-03 22:15 | 35.38570 | -80.85061 | 8444 ft | 299 kts | 120° |
| 2026-05-03 22:15 | 35.37229 | -80.83145 | 9026 ft | 301 kts | 147° |
| 2026-05-03 22:15 | 35.35325 | -80.82122 | 9604 ft | 300 kts | 174° |
| 2026-05-03 22:16 | 35.33267 | -80.82170 | 10168 ft | 297 kts | 195° |
| 2026-05-03 22:16 | 35.31223 | -80.82611 | 10756 ft | 302 kts | 195° |
| 2026-05-03 22:16 | 35.29100 | -80.83083 | 10895 ft | 324 kts | 195° |
| 2026-05-03 22:16 | 35.26839 | -80.83584 | 11305 ft | 334 kts | 194° |
| 2026-05-03 22:17 | 35.24518 | -80.84088 | 11886 ft | 339 kts | 194° |
| 2026-05-03 22:17 | 35.22193 | -80.84585 | 12498 ft | 341 kts | 194° |
| 2026-05-03 22:17 | 35.19848 | -80.85083 | 13102 ft | 344 kts | 194° |
| 2026-05-03 22:17 | 35.17475 | -80.85586 | 13718 ft | 346 kts | 194° |
| 2026-05-03 22:18 | 35.15095 | -80.86090 | 14302 ft | 348 kts | 194° |
| 2026-05-03 22:18 | 35.12704 | -80.86594 | 14851 ft | 350 kts | 194° |
| 2026-05-03 22:18 | 35.10304 | -80.87099 | 15369 ft | 352 kts | 194° |
| 2026-05-03 22:18 | 35.07881 | -80.87608 | 15907 ft | 355 kts | 195° |
| 2026-05-03 22:19 | 35.05436 | -80.88123 | 16449 ft | 357 kts | 195° |
| 2026-05-03 22:19 | 35.02981 | -80.88640 | 16982 ft | 360 kts | 195° |
| 2026-05-03 22:19 | 35.00497 | -80.89165 | 17521 ft | 362 kts | 195° |
| 2026-05-03 22:19 | 34.98009 | -80.89696 | 18042 ft | 364 kts | 195° |
| 2026-05-03 22:20 | 34.95503 | -80.90230 | 18533 ft | 367 kts | 195° |
| 2026-05-03 22:20 | 34.92973 | -80.90764 | 18983 ft | 369 kts | 195° |
| 2026-05-03 22:20 | 34.90437 | -80.91299 | 19396 ft | 371 kts | 195° |
| 2026-05-03 22:20 | 34.87892 | -80.91836 | 19852 ft | 372 kts | 195° |
| 2026-05-03 22:21 | 34.85333 | -80.92374 | 20287 ft | 374 kts | 195° |
| 2026-05-03 22:21 | 34.82756 | -80.92919 | 20733 ft | 376 kts | 195° |
| 2026-05-03 22:21 | 34.80168 | -80.93466 | 21173 ft | 378 kts | 195° |
| 2026-05-03 22:21 | 34.77573 | -80.94014 | 21617 ft | 380 kts | 195° |
| 2026-05-03 22:22 | 34.74957 | -80.94564 | 22049 ft | 382 kts | 195° |
| 2026-05-03 22:22 | 34.72335 | -80.95113 | 22476 ft | 384 kts | 195° |
| 2026-05-03 22:22 | 34.69694 | -80.95666 | 22883 ft | 385 kts | 195° |
| 2026-05-03 22:22 | 34.67036 | -80.96222 | 23298 ft | 387 kts | 195° |
| 2026-05-03 22:23 | 34.64417 | -80.96770 | 23667 ft | 389 kts | 195° |
| 2026-05-03 22:23 | 34.61731 | -80.97290 | 24003 ft | 393 kts | 191° |
| 2026-05-03 22:23 | 34.58986 | -80.97560 | 24329 ft | 396 kts | 190° |
| 2026-05-03 22:23 | 34.56227 | -80.97820 | 24668 ft | 397 kts | 190° |
| 2026-05-03 22:24 | 34.53477 | -80.98076 | 24997 ft | 399 kts | 190° |
| 2026-05-03 22:24 | 34.50687 | -80.98337 | 25187 ft | 405 kts | 191° |
| 2026-05-03 22:24 | 34.47840 | -80.98606 | 25314 ft | 412 kts | 190° |
| 2026-05-03 22:24 | 34.44959 | -80.98879 | 25511 ft | 417 kts | 190° |
| 2026-05-03 22:25 | 34.42064 | -80.99152 | 25792 ft | 420 kts | 190° |
| 2026-05-03 22:25 | 34.39149 | -80.99424 | 26081 ft | 421 kts | 191° |
| 2026-05-03 22:25 | 34.36212 | -80.99694 | 26426 ft | 422 kts | 191° |
| 2026-05-03 22:25 | 34.33286 | -80.99962 | 26747 ft | 423 kts | 191° |
| 2026-05-03 22:26 | 34.31337 | -81.00140 | 26955 ft | 424 kts | 191° |
| 2026-05-03 22:26 | 34.28391 | -81.00410 | 27281 ft | 426 kts | 191° |
| 2026-05-03 22:26 | 34.25435 | -81.00685 | 27601 ft | 427 kts | 191° |
| 2026-05-03 22:26 | 34.22461 | -81.00965 | 27904 ft | 429 kts | 191° |
| 2026-05-03 22:27 | 34.19475 | -81.01245 | 28080 ft | 430 kts | 191° |
| 2026-05-03 22:27 | 34.13521 | -81.01798 | 28085 ft | 428 kts | 191° |
| 2026-05-03 22:28 | 34.07597 | -81.02352 | 28109 ft | 426 kts | 192° |
| 2026-05-03 22:28 | 34.01676 | -81.02905 | 28109 ft | 426 kts | 192° |
| 2026-05-03 22:29 | 33.95749 | -81.03352 | 28108 ft | 429 kts | 188° |
| 2026-05-03 22:29 | 33.89791 | -81.03321 | 28110 ft | 432 kts | 186° |
| 2026-05-03 22:30 | 33.83792 | -81.03125 | 28091 ft | 430 kts | 186° |
| 2026-05-03 22:30 | 33.77811 | -81.03006 | 28099 ft | 429 kts | 187° |
| 2026-05-03 22:31 | 33.71836 | -81.02959 | 28095 ft | 429 kts | 187° |
| 2026-05-03 22:31 | 33.65871 | -81.02917 | 28091 ft | 429 kts | 187° |
| 2026-05-03 22:32 | 33.59902 | -81.02872 | 28092 ft | 428 kts | 187° |
| 2026-05-03 22:32 | 33.53948 | -81.02816 | 28092 ft | 427 kts | 187° |
| 2026-05-03 22:33 | 33.48011 | -81.02760 | 28094 ft | 427 kts | 187° |
| 2026-05-03 22:33 | 33.42058 | -81.02706 | 28111 ft | 427 kts | 187° |
| 2026-05-03 22:34 | 33.36122 | -81.02650 | 28264 ft | 428 kts | 187° |
| 2026-05-03 22:34 | 33.33143 | -81.02620 | 28613 ft | 427 kts | 188° |
| 2026-05-03 22:34 | 33.30161 | -81.02591 | 28943 ft | 428 kts | 188° |
| 2026-05-03 22:34 | 33.27172 | -81.02563 | 29241 ft | 429 kts | 188° |
| 2026-05-03 22:35 | 33.24182 | -81.02538 | 29527 ft | 431 kts | 188° |
| 2026-05-03 22:35 | 33.21182 | -81.02513 | 29802 ft | 432 kts | 188° |
| 2026-05-03 22:35 | 33.18165 | -81.02486 | 30073 ft | 434 kts | 188° |
| 2026-05-03 22:35 | 33.15183 | -81.02457 | 30295 ft | 435 kts | 188° |
| 2026-05-03 22:36 | 33.12158 | -81.02427 | 30507 ft | 436 kts | 188° |
| 2026-05-03 22:36 | 33.09122 | -81.02399 | 30713 ft | 436 kts | 188° |
| 2026-05-03 22:36 | 33.06072 | -81.02372 | 30914 ft | 437 kts | 188° |
| 2026-05-03 22:36 | 33.03045 | -81.02346 | 31190 ft | 435 kts | 189° |
| 2026-05-03 22:37 | 33.00024 | -81.02317 | 31481 ft | 433 kts | 189° |
| 2026-05-03 22:37 | 32.97011 | -81.02286 | 31773 ft | 432 kts | 189° |
| 2026-05-03 22:37 | 32.94014 | -81.02258 | 32060 ft | 430 kts | 189° |
| 2026-05-03 22:37 | 32.91024 | -81.02232 | 32348 ft | 428 kts | 189° |
| 2026-05-03 22:38 | 32.88054 | -81.02208 | 32631 ft | 426 kts | 189° |
| 2026-05-03 22:38 | 32.85087 | -81.02185 | 32910 ft | 425 kts | 190° |
| 2026-05-03 22:38 | 32.82138 | -81.02161 | 33143 ft | 423 kts | 189° |
| 2026-05-03 22:38 | 32.79197 | -81.02133 | 33453 ft | 421 kts | 190° |
| 2026-05-03 22:39 | 32.76278 | -81.02104 | 33748 ft | 419 kts | 190° |
| 2026-05-03 22:39 | 32.73357 | -81.02074 | 34026 ft | 417 kts | 190° |
| 2026-05-03 22:39 | 32.70458 | -81.02045 | 34266 ft | 416 kts | 190° |
| 2026-05-03 22:39 | 32.67571 | -81.02017 | 34484 ft | 415 kts | 190° |
| 2026-05-03 22:40 | 32.64684 | -81.01990 | 34695 ft | 414 kts | 190° |
| 2026-05-03 22:40 | 32.61814 | -81.01964 | 34905 ft | 412 kts | 191° |
| 2026-05-03 22:40 | 32.58938 | -81.01941 | 35114 ft | 411 kts | 191° |
| 2026-05-03 22:40 | 32.56089 | -81.01918 | 35271 ft | 410 kts | 191° |
| 2026-05-03 22:41 | 32.53240 | -81.01893 | 35494 ft | 409 kts | 191° |
| 2026-05-03 22:41 | 32.50390 | -81.01885 | 35715 ft | 407 kts | 192° |
| 2026-05-03 22:41 | 32.47563 | -81.01919 | 35928 ft | 405 kts | 192° |
| 2026-05-03 22:41 | 32.44788 | -81.01981 | 36131 ft | 403 kts | 193° |
| 2026-05-03 22:42 | 32.41949 | -81.02054 | 36334 ft | 402 kts | 193° |
| 2026-05-03 22:42 | 32.39150 | -81.02123 | 36535 ft | 401 kts | 193° |
| 2026-05-03 22:42 | 32.36365 | -81.02181 | 36727 ft | 400 kts | 193° |
| 2026-05-03 22:42 | 32.33615 | -81.02234 | 36897 ft | 400 kts | 193° |
| 2026-05-03 22:43 | 32.30851 | -81.02284 | 37069 ft | 399 kts | 193° |
| 2026-05-03 22:43 | 32.28076 | -81.02333 | 37207 ft | 398 kts | 193° |
| 2026-05-03 22:43 | 32.25320 | -81.02379 | 37382 ft | 396 kts | 193° |
| 2026-05-03 22:43 | 32.22556 | -81.02426 | 37540 ft | 395 kts | 193° |
| 2026-05-03 22:44 | 32.19802 | -81.02474 | 37692 ft | 394 kts | 193° |
| 2026-05-03 22:44 | 32.17065 | -81.02523 | 37822 ft | 393 kts | 193° |
| 2026-05-03 22:44 | 32.14333 | -81.02574 | 37953 ft | 392 kts | 193° |
| 2026-05-03 22:44 | 32.11604 | -81.02624 | 38074 ft | 392 kts | 194° |
| 2026-05-03 22:45 | 32.08879 | -81.02676 | 38094 ft | 392 kts | 194° |
| 2026-05-03 22:45 | 32.03424 | -81.02777 | 38092 ft | 392 kts | 193° |
| 2026-05-03 22:46 | 31.97971 | -81.02870 | 38092 ft | 390 kts | 194° |
| 2026-05-03 22:46 | 31.92554 | -81.03003 | 38095 ft | 389 kts | 194° |
| 2026-05-03 22:47 | 31.87152 | -81.03171 | 38100 ft | 388 kts | 194° |
| 2026-05-03 22:47 | 31.81740 | -81.03330 | 38107 ft | 389 kts | 194° |
| 2026-05-03 22:48 | 31.76338 | -81.03478 | 38113 ft | 389 kts | 194° |
| 2026-05-03 22:48 | 31.70969 | -81.03616 | 38124 ft | 388 kts | 194° |
| 2026-05-03 22:49 | 31.65580 | -81.03764 | 38126 ft | 387 kts | 194° |
| 2026-05-03 22:49 | 31.60196 | -81.03915 | 38136 ft | 387 kts | 194° |
| 2026-05-03 22:50 | 31.54825 | -81.04126 | 38130 ft | 385 kts | 195° |
| 2026-05-03 22:50 | 31.49488 | -81.04496 | 38139 ft | 384 kts | 196° |
| 2026-05-03 22:51 | 31.44162 | -81.04879 | 38139 ft | 383 kts | 196° |
| 2026-05-03 22:51 | 31.38843 | -81.05237 | 38141 ft | 383 kts | 195° |
| 2026-05-03 22:52 | 31.33507 | -81.05584 | 38140 ft | 383 kts | 195° |
| 2026-05-03 22:52 | 31.28174 | -81.05924 | 38144 ft | 383 kts | 195° |
| 2026-05-03 22:53 | 31.22861 | -81.06225 | 38142 ft | 385 kts | 194° |
| 2026-05-03 22:53 | 31.17491 | -81.06343 | 38141 ft | 387 kts | 193° |
| 2026-05-03 22:54 | 31.12114 | -81.06405 | 38139 ft | 386 kts | 193° |
| 2026-05-03 22:54 | 31.06734 | -81.06491 | 38142 ft | 386 kts | 194° |
| 2026-05-03 22:55 | 31.01371 | -81.06605 | 38143 ft | 385 kts | 194° |
| 2026-05-03 22:55 | 30.96008 | -81.06722 | 38143 ft | 385 kts | 194° |
| 2026-05-03 22:56 | 30.90680 | -81.06832 | 38144 ft | 385 kts | 194° |
| 2026-05-03 22:56 | 30.85319 | -81.06940 | 38144 ft | 385 kts | 194° |
| 2026-05-03 22:57 | 30.79957 | -81.07042 | 38144 ft | 385 kts | 194° |
| 2026-05-03 22:57 | 30.74604 | -81.07152 | 38141 ft | 385 kts | 194° |
| 2026-05-03 22:58 | 30.69245 | -81.07265 | 38144 ft | 385 kts | 194° |
| 2026-05-03 22:58 | 30.63889 | -81.07378 | 38106 ft | 383 kts | 194° |
| 2026-05-03 22:59 | 30.58612 | -81.07566 | 38139 ft | 377 kts | 195° |
| 2026-05-03 22:59 | 30.53395 | -81.07908 | 38138 ft | 375 kts | 196° |
| 2026-05-03 23:00 | 30.48181 | -81.08273 | 38140 ft | 375 kts | 196° |
| 2026-05-03 23:00 | 30.42968 | -81.08599 | 38140 ft | 375 kts | 195° |
| 2026-05-03 23:01 | 30.37744 | -81.08910 | 38140 ft | 375 kts | 195° |
| 2026-05-03 23:01 | 30.32529 | -81.09222 | 38138 ft | 375 kts | 195° |
| 2026-05-03 23:02 | 30.27316 | -81.09531 | 38136 ft | 375 kts | 195° |
| 2026-05-03 23:02 | 30.22133 | -81.09833 | 38137 ft | 375 kts | 195° |
| 2026-05-03 23:03 | 30.16888 | -81.10148 | 38138 ft | 375 kts | 195° |
| 2026-05-03 23:03 | 30.11714 | -81.10465 | 38143 ft | 375 kts | 195° |
| 2026-05-03 23:04 | 30.06498 | -81.10783 | 38123 ft | 375 kts | 195° |
| 2026-05-03 23:04 | 30.01266 | -81.11090 | 38140 ft | 376 kts | 195° |
| 2026-05-03 23:05 | 29.96050 | -81.11392 | 38144 ft | 376 kts | 195° |
| 2026-05-03 23:05 | 29.90822 | -81.11700 | 38149 ft | 376 kts | 195° |
| 2026-05-03 23:06 | 29.85593 | -81.12015 | 38154 ft | 376 kts | 195° |
| 2026-05-03 23:06 | 29.80357 | -81.12313 | 38110 ft | 378 kts | 195° |
| 2026-05-03 23:07 | 29.75057 | -81.12376 | 38130 ft | 382 kts | 193° |
| 2026-05-03 23:07 | 29.69744 | -81.12333 | 38142 ft | 382 kts | 193° |
| 2026-05-03 23:08 | 29.64430 | -81.12323 | 38140 ft | 382 kts | 193° |
| 2026-05-03 23:08 | 29.59131 | -81.12350 | 38148 ft | 382 kts | 194° |
| 2026-05-03 23:09 | 29.54691 | -81.12417 | 38156 ft | 380 kts | 195° |
| 2026-05-03 23:09 | 29.49414 | -81.12629 | 38108 ft | 379 kts | 195° |
| 2026-05-03 23:10 | 29.44122 | -81.12867 | 38125 ft | 380 kts | 195° |
| 2026-05-03 23:10 | 29.38824 | -81.13083 | 38127 ft | 381 kts | 195° |